sensor_id;sensor_type;location;lat;lon;timestamp;temperature;humidity
54192;DHT22;40101;53.002;6.488;2023-12-20T00:00:25;5.80;99.90
54192;DHT22;40101;53.002;6.488;2023-12-20T00:02:51;5.80;99.90
54192;DHT22;40101;53.002;6.488;2023-12-20T00:05:16;5.80;99.90
54192;DHT22;40101;53.002;6.488;2023-12-20T00:07:42;5.90;99.90
54192;DHT22;40101;53.002;6.488;2023-12-20T00:10:08;5.80;99.90
54192;DHT22;40101;53.002;6.488;2023-12-20T00:12:34;5.80;99.90
54192;DHT22;40101;53.002;6.488;2023-12-20T00:15:00;5.70;99.90
54192;DHT22;40101;53.002;6.488;2023-12-20T00:17:25;5.70;99.90
54192;DHT22;40101;53.002;6.488;2023-12-20T00:19:51;5.70;99.90
54192;DHT22;40101;53.002;6.488;2023-12-20T00:22:17;5.80;99.90
54192;DHT22;40101;53.002;6.488;2023-12-20T00:24:42;5.80;99.90
54192;DHT22;40101;53.002;6.488;2023-12-20T00:27:08;5.70;99.90
54192;DHT22;40101;53.002;6.488;2023-12-20T00:29:33;5.70;99.90
54192;DHT22;40101;53.002;6.488;2023-12-20T00:31:59;5.70;99.90
54192;DHT22;40101;53.002;6.488;2023-12-20T00:34:25;5.70;99.90
54192;DHT22;40101;53.002;6.488;2023-12-20T00:36:51;5.70;99.90
54192;DHT22;40101;53.002;6.488;2023-12-20T00:39:17;5.70;99.90
54192;DHT22;40101;53.002;6.488;2023-12-20T00:41:43;5.70;99.90
54192;DHT22;40101;53.002;6.488;2023-12-20T00:44:09;5.80;99.90
54192;DHT22;40101;53.002;6.488;2023-12-20T00:46:34;5.80;99.90
54192;DHT22;40101;53.002;6.488;2023-12-20T00:49:00;5.80;99.90
54192;DHT22;40101;53.002;6.488;2023-12-20T00:51:26;5.80;99.90
54192;DHT22;40101;53.002;6.488;2023-12-20T00:53:51;5.70;99.90
54192;DHT22;40101;53.002;6.488;2023-12-20T00:56:20;5.80;99.90
54192;DHT22;40101;53.002;6.488;2023-12-20T00:58:46;5.80;99.90
54192;DHT22;40101;53.002;6.488;2023-12-20T01:01:12;5.80;99.90
54192;DHT22;40101;53.002;6.488;2023-12-20T01:03:38;5.70;99.90
54192;DHT22;40101;53.002;6.488;2023-12-20T01:06:04;5.60;99.90
54192;DHT22;40101;53.002;6.488;2023-12-20T01:08:31;5.70;99.90
54192;DHT22;40101;53.002;6.488;2023-12-20T01:10:56;5.70;99.90
54192;DHT22;40101;53.002;6.488;2023-12-20T01:13:22;5.70;99.90
54192;DHT22;40101;53.002;6.488;2023-12-20T01:15:48;5.70;99.90
54192;DHT22;40101;53.002;6.488;2023-12-20T01:18:14;5.70;99.90
54192;DHT22;40101;53.002;6.488;2023-12-20T01:20:40;5.70;99.90
54192;DHT22;40101;53.002;6.488;2023-12-20T01:23:06;5.70;99.90
54192;DHT22;40101;53.002;6.488;2023-12-20T01:25:31;5.60;99.90
54192;DHT22;40101;53.002;6.488;2023-12-20T01:27:59;5.60;99.90
54192;DHT22;40101;53.002;6.488;2023-12-20T01:30:25;5.60;99.90
54192;DHT22;40101;53.002;6.488;2023-12-20T01:32:50;5.80;99.90
54192;DHT22;40101;53.002;6.488;2023-12-20T01:35:16;5.60;99.90
54192;DHT22;40101;53.002;6.488;2023-12-20T01:37:41;5.60;99.90
54192;DHT22;40101;53.002;6.488;2023-12-20T01:40:07;5.60;99.90
54192;DHT22;40101;53.002;6.488;2023-12-20T01:42:33;5.60;99.90
54192;DHT22;40101;53.002;6.488;2023-12-20T01:44:59;5.60;99.90
54192;DHT22;40101;53.002;6.488;2023-12-20T01:47:24;5.60;99.90
54192;DHT22;40101;53.002;6.488;2023-12-20T01:49:52;5.70;99.90
54192;DHT22;40101;53.002;6.488;2023-12-20T01:52:19;5.70;99.90
54192;DHT22;40101;53.002;6.488;2023-12-20T01:54:46;5.70;99.90
54192;DHT22;40101;53.002;6.488;2023-12-20T01:57:12;5.80;99.90
54192;DHT22;40101;53.002;6.488;2023-12-20T01:59:39;5.70;99.90
54192;DHT22;40101;53.002;6.488;2023-12-20T02:02:05;5.70;99.90
54192;DHT22;40101;53.002;6.488;2023-12-20T02:04:31;5.70;99.90
54192;DHT22;40101;53.002;6.488;2023-12-20T02:06:57;5.70;99.90
54192;DHT22;40101;53.002;6.488;2023-12-20T02:09:24;5.70;99.90
54192;DHT22;40101;53.002;6.488;2023-12-20T02:11:49;5.60;99.90
54192;DHT22;40101;53.002;6.488;2023-12-20T02:14:15;5.60;99.90
54192;DHT22;40101;53.002;6.488;2023-12-20T02:16:41;5.60;99.90
54192;DHT22;40101;53.002;6.488;2023-12-20T02:19:13;5.60;99.90
54192;DHT22;40101;53.002;6.488;2023-12-20T02:21:38;5.60;99.90
54192;DHT22;40101;53.002;6.488;2023-12-20T02:24:04;5.60;99.90
54192;DHT22;40101;53.002;6.488;2023-12-20T02:26:32;5.70;99.90
54192;DHT22;40101;53.002;6.488;2023-12-20T02:28:58;5.70;99.90
54192;DHT22;40101;53.002;6.488;2023-12-20T02:31:24;5.70;99.90
54192;DHT22;40101;53.002;6.488;2023-12-20T02:33:50;5.80;99.90
54192;DHT22;40101;53.002;6.488;2023-12-20T02:36:15;5.80;99.90
54192;DHT22;40101;53.002;6.488;2023-12-20T02:38:41;5.90;99.90
54192;DHT22;40101;53.002;6.488;2023-12-20T02:41:07;5.90;99.90
54192;DHT22;40101;53.002;6.488;2023-12-20T02:43:32;5.90;99.90
54192;DHT22;40101;53.002;6.488;2023-12-20T02:45:58;5.90;99.90
54192;DHT22;40101;53.002;6.488;2023-12-20T02:48:24;6.00;99.90
54192;DHT22;40101;53.002;6.488;2023-12-20T02:50:49;6.00;99.90
54192;DHT22;40101;53.002;6.488;2023-12-20T02:53:15;6.00;99.90
54192;DHT22;40101;53.002;6.488;2023-12-20T02:55:41;6.00;99.90
54192;DHT22;40101;53.002;6.488;2023-12-20T02:58:07;6.00;99.90
54192;DHT22;40101;53.002;6.488;2023-12-20T03:00:33;6.10;99.90
54192;DHT22;40101;53.002;6.488;2023-12-20T03:02:58;6.10;99.90
54192;DHT22;40101;53.002;6.488;2023-12-20T03:05:25;6.00;99.90
54192;DHT22;40101;53.002;6.488;2023-12-20T03:07:51;6.10;99.90
54192;DHT22;40101;53.002;6.488;2023-12-20T03:10:18;6.00;99.90
54192;DHT22;40101;53.002;6.488;2023-12-20T03:12:44;6.00;99.90
54192;DHT22;40101;53.002;6.488;2023-12-20T03:15:10;6.00;99.90
54192;DHT22;40101;53.002;6.488;2023-12-20T03:17:35;6.10;99.90
54192;DHT22;40101;53.002;6.488;2023-12-20T03:20:01;6.10;99.90
54192;DHT22;40101;53.002;6.488;2023-12-20T03:22:27;6.10;99.90
54192;DHT22;40101;53.002;6.488;2023-12-20T03:24:52;6.10;99.90
54192;DHT22;40101;53.002;6.488;2023-12-20T03:27:18;6.10;99.90
54192;DHT22;40101;53.002;6.488;2023-12-20T03:29:43;6.00;99.90
54192;DHT22;40101;53.002;6.488;2023-12-20T03:32:09;6.00;99.90
54192;DHT22;40101;53.002;6.488;2023-12-20T03:34:35;6.00;99.90
54192;DHT22;40101;53.002;6.488;2023-12-20T03:37:00;6.00;99.90
54192;DHT22;40101;53.002;6.488;2023-12-20T03:39:26;6.00;99.90
54192;DHT22;40101;53.002;6.488;2023-12-20T03:41:52;6.00;99.90
54192;DHT22;40101;53.002;6.488;2023-12-20T03:44:17;6.00;99.90
54192;DHT22;40101;53.002;6.488;2023-12-20T03:46:43;6.00;99.90
54192;DHT22;40101;53.002;6.488;2023-12-20T03:49:09;6.10;99.90
54192;DHT22;40101;53.002;6.488;2023-12-20T03:51:34;6.10;99.90
54192;DHT22;40101;53.002;6.488;2023-12-20T03:54:00;6.10;99.90
54192;DHT22;40101;53.002;6.488;2023-12-20T03:56:25;6.10;99.90
54192;DHT22;40101;53.002;6.488;2023-12-20T03:58:51;6.10;99.90
54192;DHT22;40101;53.002;6.488;2023-12-20T04:01:17;6.10;99.90
54192;DHT22;40101;53.002;6.488;2023-12-20T04:03:42;6.10;99.90
54192;DHT22;40101;53.002;6.488;2023-12-20T04:06:08;6.20;99.90
54192;DHT22;40101;53.002;6.488;2023-12-20T04:08:35;6.20;99.90
54192;DHT22;40101;53.002;6.488;2023-12-20T04:11:00;6.30;99.90
54192;DHT22;40101;53.002;6.488;2023-12-20T04:13:26;6.20;99.90
54192;DHT22;40101;53.002;6.488;2023-12-20T04:15:52;6.40;99.90
54192;DHT22;40101;53.002;6.488;2023-12-20T04:18:17;6.30;99.90
54192;DHT22;40101;53.002;6.488;2023-12-20T04:20:43;6.30;99.90
54192;DHT22;40101;53.002;6.488;2023-12-20T04:23:09;6.40;99.90
54192;DHT22;40101;53.002;6.488;2023-12-20T04:25:34;6.30;99.90
54192;DHT22;40101;53.002;6.488;2023-12-20T04:28:00;6.30;99.90
54192;DHT22;40101;53.002;6.488;2023-12-20T04:30:25;6.40;99.90
54192;DHT22;40101;53.002;6.488;2023-12-20T04:32:51;6.40;99.90
54192;DHT22;40101;53.002;6.488;2023-12-20T04:35:17;6.40;99.90
54192;DHT22;40101;53.002;6.488;2023-12-20T04:37:42;6.50;99.90
54192;DHT22;40101;53.002;6.488;2023-12-20T04:40:08;6.60;99.90
54192;DHT22;40101;53.002;6.488;2023-12-20T04:42:34;6.50;99.90
54192;DHT22;40101;53.002;6.488;2023-12-20T04:45:00;6.80;99.90
54192;DHT22;40101;53.002;6.488;2023-12-20T04:47:25;6.60;99.90
54192;DHT22;40101;53.002;6.488;2023-12-20T04:49:51;6.60;99.90
54192;DHT22;40101;53.002;6.488;2023-12-20T04:52:16;6.70;99.90
54192;DHT22;40101;53.002;6.488;2023-12-20T04:54:42;6.60;99.90
54192;DHT22;40101;53.002;6.488;2023-12-20T04:57:08;6.60;99.90
54192;DHT22;40101;53.002;6.488;2023-12-20T04:59:33;6.60;99.90
54192;DHT22;40101;53.002;6.488;2023-12-20T05:01:59;6.60;99.90
54192;DHT22;40101;53.002;6.488;2023-12-20T05:04:24;6.70;99.90
54192;DHT22;40101;53.002;6.488;2023-12-20T05:06:50;6.60;99.90
54192;DHT22;40101;53.002;6.488;2023-12-20T05:09:16;6.60;99.90
54192;DHT22;40101;53.002;6.488;2023-12-20T05:11:42;6.70;99.90
54192;DHT22;40101;53.002;6.488;2023-12-20T05:14:07;6.60;99.90
54192;DHT22;40101;53.002;6.488;2023-12-20T05:16:33;6.70;99.90
54192;DHT22;40101;53.002;6.488;2023-12-20T05:18:59;6.70;99.90
54192;DHT22;40101;53.002;6.488;2023-12-20T05:21:26;6.70;99.90
54192;DHT22;40101;53.002;6.488;2023-12-20T05:23:52;6.70;99.90
54192;DHT22;40101;53.002;6.488;2023-12-20T05:26:18;6.80;99.90
54192;DHT22;40101;53.002;6.488;2023-12-20T05:28:44;6.80;99.90
54192;DHT22;40101;53.002;6.488;2023-12-20T05:31:09;6.80;99.90
54192;DHT22;40101;53.002;6.488;2023-12-20T05:33:35;6.80;99.90
54192;DHT22;40101;53.002;6.488;2023-12-20T05:36:00;6.80;99.90
54192;DHT22;40101;53.002;6.488;2023-12-20T05:38:26;6.90;99.90
54192;DHT22;40101;53.002;6.488;2023-12-20T05:40:52;6.90;99.90
54192;DHT22;40101;53.002;6.488;2023-12-20T05:43:17;6.90;99.90
54192;DHT22;40101;53.002;6.488;2023-12-20T05:45:43;6.90;99.90
54192;DHT22;40101;53.002;6.488;2023-12-20T05:48:09;6.90;99.90
54192;DHT22;40101;53.002;6.488;2023-12-20T05:50:34;6.90;99.90
54192;DHT22;40101;53.002;6.488;2023-12-20T05:53:00;6.90;99.90
54192;DHT22;40101;53.002;6.488;2023-12-20T05:55:26;7.10;99.90
54192;DHT22;40101;53.002;6.488;2023-12-20T05:57:52;7.00;99.90
54192;DHT22;40101;53.002;6.488;2023-12-20T06:00:18;7.00;99.90
54192;DHT22;40101;53.002;6.488;2023-12-20T06:02:44;7.20;99.90
54192;DHT22;40101;53.002;6.488;2023-12-20T06:05:09;7.00;99.90
54192;DHT22;40101;53.002;6.488;2023-12-20T06:07:35;7.00;99.90
54192;DHT22;40101;53.002;6.488;2023-12-20T06:10:00;7.00;99.90
54192;DHT22;40101;53.002;6.488;2023-12-20T06:12:26;7.10;99.90
54192;DHT22;40101;53.002;6.488;2023-12-20T06:14:54;7.00;99.90
54192;DHT22;40101;53.002;6.488;2023-12-20T06:17:20;7.10;99.90
54192;DHT22;40101;53.002;6.488;2023-12-20T06:19:45;7.10;99.90
54192;DHT22;40101;53.002;6.488;2023-12-20T06:22:14;7.10;99.90
54192;DHT22;40101;53.002;6.488;2023-12-20T06:24:39;7.10;99.90
54192;DHT22;40101;53.002;6.488;2023-12-20T06:27:05;7.10;99.90
54192;DHT22;40101;53.002;6.488;2023-12-20T06:29:31;7.10;99.90
54192;DHT22;40101;53.002;6.488;2023-12-20T06:31:57;7.10;99.90
54192;DHT22;40101;53.002;6.488;2023-12-20T06:34:23;7.00;99.90
54192;DHT22;40101;53.002;6.488;2023-12-20T06:36:51;7.10;99.90
54192;DHT22;40101;53.002;6.488;2023-12-20T06:39:16;7.10;99.90
54192;DHT22;40101;53.002;6.488;2023-12-20T06:41:42;7.00;99.90
54192;DHT22;40101;53.002;6.488;2023-12-20T06:44:08;7.10;99.90
54192;DHT22;40101;53.002;6.488;2023-12-20T06:46:34;7.10;99.90
54192;DHT22;40101;53.002;6.488;2023-12-20T06:49:00;7.10;99.90
54192;DHT22;40101;53.002;6.488;2023-12-20T06:51:25;7.10;99.90
54192;DHT22;40101;53.002;6.488;2023-12-20T06:53:54;7.30;99.90
54192;DHT22;40101;53.002;6.488;2023-12-20T06:56:19;7.10;99.90
54192;DHT22;40101;53.002;6.488;2023-12-20T06:58:45;7.10;99.90
54192;DHT22;40101;53.002;6.488;2023-12-20T07:01:12;7.20;99.90
54192;DHT22;40101;53.002;6.488;2023-12-20T07:03:38;7.20;99.90
54192;DHT22;40101;53.002;6.488;2023-12-20T07:06:04;7.20;99.90
54192;DHT22;40101;53.002;6.488;2023-12-20T07:08:30;7.30;99.90
54192;DHT22;40101;53.002;6.488;2023-12-20T07:10:55;7.20;99.90
54192;DHT22;40101;53.002;6.488;2023-12-20T07:13:21;7.30;99.90
54192;DHT22;40101;53.002;6.488;2023-12-20T07:15:48;7.30;99.90
54192;DHT22;40101;53.002;6.488;2023-12-20T07:18:14;7.30;99.90
54192;DHT22;40101;53.002;6.488;2023-12-20T07:20:39;7.30;99.90
54192;DHT22;40101;53.002;6.488;2023-12-20T07:23:05;7.20;99.90
54192;DHT22;40101;53.002;6.488;2023-12-20T07:25:31;7.40;99.90
54192;DHT22;40101;53.002;6.488;2023-12-20T07:27:59;7.50;99.90
54192;DHT22;40101;53.002;6.488;2023-12-20T07:30:25;7.40;99.90
54192;DHT22;40101;53.002;6.488;2023-12-20T07:32:50;7.40;99.90
54192;DHT22;40101;53.002;6.488;2023-12-20T07:35:17;7.40;99.90
54192;DHT22;40101;53.002;6.488;2023-12-20T07:37:43;7.40;99.90
54192;DHT22;40101;53.002;6.488;2023-12-20T07:40:10;7.40;99.90
54192;DHT22;40101;53.002;6.488;2023-12-20T07:42:35;7.40;99.90
54192;DHT22;40101;53.002;6.488;2023-12-20T07:45:01;7.40;99.90
54192;DHT22;40101;53.002;6.488;2023-12-20T07:47:27;7.40;99.90
54192;DHT22;40101;53.002;6.488;2023-12-20T07:49:52;7.40;99.90
54192;DHT22;40101;53.002;6.488;2023-12-20T07:52:18;7.40;99.90
54192;DHT22;40101;53.002;6.488;2023-12-20T07:54:45;7.40;99.90
54192;DHT22;40101;53.002;6.488;2023-12-20T07:57:11;7.40;99.90
54192;DHT22;40101;53.002;6.488;2023-12-20T07:59:38;7.40;99.90
54192;DHT22;40101;53.002;6.488;2023-12-20T08:02:03;7.50;99.90
54192;DHT22;40101;53.002;6.488;2023-12-20T08:04:29;7.50;99.90
54192;DHT22;40101;53.002;6.488;2023-12-20T08:06:55;7.50;99.90
54192;DHT22;40101;53.002;6.488;2023-12-20T08:09:20;7.60;99.90
54192;DHT22;40101;53.002;6.488;2023-12-20T08:11:49;7.50;99.90
54192;DHT22;40101;53.002;6.488;2023-12-20T08:14:16;7.50;99.90
54192;DHT22;40101;53.002;6.488;2023-12-20T08:16:41;7.60;99.90
54192;DHT22;40101;53.002;6.488;2023-12-20T08:19:07;7.50;99.90
54192;DHT22;40101;53.002;6.488;2023-12-20T08:21:33;7.60;99.90
54192;DHT22;40101;53.002;6.488;2023-12-20T08:23:59;7.50;99.90
54192;DHT22;40101;53.002;6.488;2023-12-20T08:26:26;7.50;99.90
54192;DHT22;40101;53.002;6.488;2023-12-20T08:28:52;7.60;99.90
54192;DHT22;40101;53.002;6.488;2023-12-20T08:31:18;7.70;99.90
54192;DHT22;40101;53.002;6.488;2023-12-20T08:33:44;7.70;99.90
54192;DHT22;40101;53.002;6.488;2023-12-20T08:36:10;7.70;99.90
54192;DHT22;40101;53.002;6.488;2023-12-20T08:38:36;7.60;99.90
54192;DHT22;40101;53.002;6.488;2023-12-20T08:41:03;7.60;99.90
54192;DHT22;40101;53.002;6.488;2023-12-20T08:43:31;7.50;99.90
54192;DHT22;40101;53.002;6.488;2023-12-20T08:45:57;7.60;99.90
54192;DHT22;40101;53.002;6.488;2023-12-20T08:48:22;7.40;99.90
54192;DHT22;40101;53.002;6.488;2023-12-20T08:50:48;7.30;99.90
54192;DHT22;40101;53.002;6.488;2023-12-20T08:53:15;7.30;99.90
54192;DHT22;40101;53.002;6.488;2023-12-20T08:55:42;7.20;99.90
54192;DHT22;40101;53.002;6.488;2023-12-20T08:58:08;7.20;99.90
54192;DHT22;40101;53.002;6.488;2023-12-20T09:00:34;7.30;99.90
54192;DHT22;40101;53.002;6.488;2023-12-20T09:03:01;7.30;99.90
54192;DHT22;40101;53.002;6.488;2023-12-20T09:05:27;7.30;99.90
54192;DHT22;40101;53.002;6.488;2023-12-20T09:07:52;7.60;99.90
54192;DHT22;40101;53.002;6.488;2023-12-20T09:10:18;7.60;99.90
54192;DHT22;40101;53.002;6.488;2023-12-20T09:12:49;7.70;99.90
54192;DHT22;40101;53.002;6.488;2023-12-20T09:15:14;7.80;99.90
54192;DHT22;40101;53.002;6.488;2023-12-20T09:17:40;7.80;99.90
54192;DHT22;40101;53.002;6.488;2023-12-20T09:20:07;7.90;99.90
54192;DHT22;40101;53.002;6.488;2023-12-20T09:22:34;8.10;99.90
54192;DHT22;40101;53.002;6.488;2023-12-20T09:25:00;8.30;99.90
54192;DHT22;40101;53.002;6.488;2023-12-20T09:27:27;8.80;99.90
54192;DHT22;40101;53.002;6.488;2023-12-20T09:29:53;9.30;99.90
54192;DHT22;40101;53.002;6.488;2023-12-20T09:32:19;9.60;99.90
54192;DHT22;40101;53.002;6.488;2023-12-20T09:34:47;9.30;99.90
54192;DHT22;40101;53.002;6.488;2023-12-20T09:37:13;8.70;99.90
54192;DHT22;40101;53.002;6.488;2023-12-20T09:39:39;8.20;99.90
54192;DHT22;40101;53.002;6.488;2023-12-20T09:42:06;7.80;99.90
54192;DHT22;40101;53.002;6.488;2023-12-20T09:44:33;7.40;99.90
54192;DHT22;40101;53.002;6.488;2023-12-20T09:47:05;7.20;99.90
54192;DHT22;40101;53.002;6.488;2023-12-20T09:49:31;7.00;99.90
54192;DHT22;40101;53.002;6.488;2023-12-20T09:51:59;6.90;99.90
54192;DHT22;40101;53.002;6.488;2023-12-20T09:54:28;6.80;99.90
54192;DHT22;40101;53.002;6.488;2023-12-20T09:56:54;6.70;99.90
54192;DHT22;40101;53.002;6.488;2023-12-20T09:59:20;6.70;99.90
54192;DHT22;40101;53.002;6.488;2023-12-20T10:01:48;6.60;99.90
54192;DHT22;40101;53.002;6.488;2023-12-20T10:04:15;6.50;99.90
54192;DHT22;40101;53.002;6.488;2023-12-20T10:06:44;6.60;99.90
54192;DHT22;40101;53.002;6.488;2023-12-20T10:09:11;6.40;99.90
54192;DHT22;40101;53.002;6.488;2023-12-20T10:11:38;6.40;99.90
54192;DHT22;40101;53.002;6.488;2023-12-20T10:14:05;6.60;99.90
54192;DHT22;40101;53.002;6.488;2023-12-20T10:16:32;6.50;99.90
54192;DHT22;40101;53.002;6.488;2023-12-20T10:18:59;6.50;99.90
54192;DHT22;40101;53.002;6.488;2023-12-20T10:21:29;6.60;99.90
54192;DHT22;40101;53.002;6.488;2023-12-20T10:23:56;6.70;99.90
54192;DHT22;40101;53.002;6.488;2023-12-20T10:26:26;6.50;99.90
54192;DHT22;40101;53.002;6.488;2023-12-20T10:28:59;6.50;99.90
54192;DHT22;40101;53.002;6.488;2023-12-20T10:33:55;6.40;99.90
54192;DHT22;40101;53.002;6.488;2023-12-20T10:36:22;6.40;99.90
54192;DHT22;40101;53.002;6.488;2023-12-20T10:38:50;6.20;99.90
54192;DHT22;40101;53.002;6.488;2023-12-20T10:41:24;6.50;99.90
54192;DHT22;40101;53.002;6.488;2023-12-20T10:44:02;6.40;99.90
54192;DHT22;40101;53.002;6.488;2023-12-20T10:46:31;6.50;99.90
54192;DHT22;40101;53.002;6.488;2023-12-20T10:48:58;6.80;99.90
54192;DHT22;40101;53.002;6.488;2023-12-20T10:51:25;6.80;99.90
54192;DHT22;40101;53.002;6.488;2023-12-20T10:53:55;6.80;99.90
54192;DHT22;40101;53.002;6.488;2023-12-20T10:56:22;6.90;99.90
54192;DHT22;40101;53.002;6.488;2023-12-20T10:58:51;6.90;99.90
54192;DHT22;40101;53.002;6.488;2023-12-20T11:01:18;6.90;99.90
54192;DHT22;40101;53.002;6.488;2023-12-20T11:03:52;6.90;99.90
54192;DHT22;40101;53.002;6.488;2023-12-20T11:06:32;7.10;99.90
54192;DHT22;40101;53.002;6.488;2023-12-20T11:14:18;7.10;99.90
54192;DHT22;40101;53.002;6.488;2023-12-20T11:16:48;7.10;99.90
54192;DHT22;40101;53.002;6.488;2023-12-20T11:19:13;7.10;99.90
54192;DHT22;40101;53.002;6.488;2023-12-20T11:21:40;7.10;99.90
54192;DHT22;40101;53.002;6.488;2023-12-20T11:24:06;7.30;99.90
54192;DHT22;40101;53.002;6.488;2023-12-20T11:26:32;7.10;99.90
54192;DHT22;40101;53.002;6.488;2023-12-20T11:31:59;7.20;99.90
54192;DHT22;40101;53.002;6.488;2023-12-20T11:34:27;7.30;99.90
54192;DHT22;40101;53.002;6.488;2023-12-20T11:36:58;7.20;99.90
54192;DHT22;40101;53.002;6.488;2023-12-20T11:39:26;7.30;99.90
54192;DHT22;40101;53.002;6.488;2023-12-20T11:41:56;7.30;99.90
54192;DHT22;40101;53.002;6.488;2023-12-20T11:44:22;7.30;99.90
54192;DHT22;40101;53.002;6.488;2023-12-20T11:46:51;7.40;99.90
54192;DHT22;40101;53.002;6.488;2023-12-20T11:49:23;7.40;99.90
54192;DHT22;40101;53.002;6.488;2023-12-20T11:51:49;7.40;99.90
54192;DHT22;40101;53.002;6.488;2023-12-20T11:54:15;7.40;99.90
54192;DHT22;40101;53.002;6.488;2023-12-20T11:56:41;7.40;99.90
54192;DHT22;40101;53.002;6.488;2023-12-20T11:59:08;7.50;99.90
54192;DHT22;40101;53.002;6.488;2023-12-20T12:01:50;7.70;99.90
54192;DHT22;40101;53.002;6.488;2023-12-20T12:04:16;7.30;99.90
54192;DHT22;40101;53.002;6.488;2023-12-20T12:06:45;7.50;99.90
54192;DHT22;40101;53.002;6.488;2023-12-20T12:09:11;7.60;99.90
54192;DHT22;40101;53.002;6.488;2023-12-20T12:11:37;7.50;99.90
54192;DHT22;40101;53.002;6.488;2023-12-20T12:14:03;7.50;99.90
54192;DHT22;40101;53.002;6.488;2023-12-20T12:16:29;7.50;99.90
54192;DHT22;40101;53.002;6.488;2023-12-20T12:18:59;7.50;99.90
54192;DHT22;40101;53.002;6.488;2023-12-20T12:21:25;7.50;99.90
54192;DHT22;40101;53.002;6.488;2023-12-20T12:23:50;7.50;99.90
54192;DHT22;40101;53.002;6.488;2023-12-20T12:26:16;7.60;99.90
54192;DHT22;40101;53.002;6.488;2023-12-20T12:28:43;7.50;99.90
54192;DHT22;40101;53.002;6.488;2023-12-20T12:31:17;7.40;99.90
54192;DHT22;40101;53.002;6.488;2023-12-20T12:33:43;7.40;99.90
54192;DHT22;40101;53.002;6.488;2023-12-20T12:36:10;7.30;99.90
54192;DHT22;40101;53.002;6.488;2023-12-20T12:38:37;7.30;99.90
54192;DHT22;40101;53.002;6.488;2023-12-20T12:41:05;7.30;99.90
54192;DHT22;40101;53.002;6.488;2023-12-20T12:43:35;7.30;99.90
54192;DHT22;40101;53.002;6.488;2023-12-20T12:46:01;7.30;99.90
54192;DHT22;40101;53.002;6.488;2023-12-20T12:48:29;7.20;99.90
54192;DHT22;40101;53.002;6.488;2023-12-20T12:50:55;7.20;99.90
54192;DHT22;40101;53.002;6.488;2023-12-20T12:53:25;7.20;99.90
54192;DHT22;40101;53.002;6.488;2023-12-20T12:55:52;7.40;99.90
54192;DHT22;40101;53.002;6.488;2023-12-20T12:58:18;7.20;99.90
54192;DHT22;40101;53.002;6.488;2023-12-20T13:00:44;7.30;99.90
54192;DHT22;40101;53.002;6.488;2023-12-20T13:03:09;7.20;99.90
54192;DHT22;40101;53.002;6.488;2023-12-20T13:05:35;7.20;99.90
54192;DHT22;40101;53.002;6.488;2023-12-20T13:08:01;7.30;99.90
54192;DHT22;40101;53.002;6.488;2023-12-20T13:10:27;7.20;99.90
54192;DHT22;40101;53.002;6.488;2023-12-20T13:13:07;7.20;99.90
54192;DHT22;40101;53.002;6.488;2023-12-20T13:15:36;7.30;99.90
54192;DHT22;40101;53.002;6.488;2023-12-20T13:18:03;7.10;99.90
54192;DHT22;40101;53.002;6.488;2023-12-20T13:20:32;7.10;99.90
54192;DHT22;40101;53.002;6.488;2023-12-20T13:22:59;7.20;99.90
54192;DHT22;40101;53.002;6.488;2023-12-20T13:25:24;7.00;99.90
54192;DHT22;40101;53.002;6.488;2023-12-20T13:27:50;6.80;99.90
54192;DHT22;40101;53.002;6.488;2023-12-20T13:30:19;6.90;99.90
54192;DHT22;40101;53.002;6.488;2023-12-20T13:32:44;6.80;99.90
54192;DHT22;40101;53.002;6.488;2023-12-20T13:35:10;6.70;99.90
54192;DHT22;40101;53.002;6.488;2023-12-20T13:37:36;6.70;99.90
54192;DHT22;40101;53.002;6.488;2023-12-20T13:40:01;6.60;99.90
54192;DHT22;40101;53.002;6.488;2023-12-20T13:42:29;6.60;99.90
54192;DHT22;40101;53.002;6.488;2023-12-20T13:44:54;6.60;99.90
54192;DHT22;40101;53.002;6.488;2023-12-20T13:47:21;6.60;99.90
54192;DHT22;40101;53.002;6.488;2023-12-20T13:49:47;6.50;99.90
54192;DHT22;40101;53.002;6.488;2023-12-20T13:52:13;6.60;99.90
54192;DHT22;40101;53.002;6.488;2023-12-20T13:54:39;6.50;99.90
54192;DHT22;40101;53.002;6.488;2023-12-20T13:57:04;6.50;99.90
54192;DHT22;40101;53.002;6.488;2023-12-20T13:59:30;6.50;99.90
54192;DHT22;40101;53.002;6.488;2023-12-20T14:01:56;6.40;99.90
54192;DHT22;40101;53.002;6.488;2023-12-20T14:04:22;6.40;99.90
54192;DHT22;40101;53.002;6.488;2023-12-20T14:06:48;6.50;99.90
54192;DHT22;40101;53.002;6.488;2023-12-20T14:09:13;6.40;99.90
54192;DHT22;40101;53.002;6.488;2023-12-20T14:11:40;6.40;99.90
54192;DHT22;40101;53.002;6.488;2023-12-20T14:14:07;6.40;99.90
54192;DHT22;40101;53.002;6.488;2023-12-20T14:16:33;6.40;99.90
54192;DHT22;40101;53.002;6.488;2023-12-20T14:18:59;6.50;99.90
54192;DHT22;40101;53.002;6.488;2023-12-20T14:21:25;6.30;99.90
54192;DHT22;40101;53.002;6.488;2023-12-20T14:23:50;6.40;99.90
54192;DHT22;40101;53.002;6.488;2023-12-20T14:26:17;6.40;99.90
54192;DHT22;40101;53.002;6.488;2023-12-20T14:28:43;6.40;99.90
54192;DHT22;40101;53.002;6.488;2023-12-20T14:31:09;6.40;99.90
54192;DHT22;40101;53.002;6.488;2023-12-20T14:33:36;6.40;99.90
54192;DHT22;40101;53.002;6.488;2023-12-20T14:36:07;6.50;99.90
54192;DHT22;40101;53.002;6.488;2023-12-20T14:38:33;6.40;99.90
54192;DHT22;40101;53.002;6.488;2023-12-20T14:41:01;6.40;99.90
54192;DHT22;40101;53.002;6.488;2023-12-20T14:43:29;6.40;99.90
54192;DHT22;40101;53.002;6.488;2023-12-20T14:45:55;6.30;99.90
54192;DHT22;40101;53.002;6.488;2023-12-20T14:48:21;6.40;99.90
54192;DHT22;40101;53.002;6.488;2023-12-20T14:50:47;6.40;99.90
54192;DHT22;40101;53.002;6.488;2023-12-20T14:53:14;6.30;99.90
54192;DHT22;40101;53.002;6.488;2023-12-20T14:55:42;6.40;99.90
54192;DHT22;40101;53.002;6.488;2023-12-20T14:58:08;6.40;99.90
54192;DHT22;40101;53.002;6.488;2023-12-20T15:00:33;6.30;99.90
54192;DHT22;40101;53.002;6.488;2023-12-20T15:02:59;6.30;99.90
54192;DHT22;40101;53.002;6.488;2023-12-20T15:05:25;6.30;99.90
54192;DHT22;40101;53.002;6.488;2023-12-20T15:07:52;6.30;99.90
54192;DHT22;40101;53.002;6.488;2023-12-20T15:10:21;6.30;99.90
54192;DHT22;40101;53.002;6.488;2023-12-20T15:12:47;6.20;99.90
54192;DHT22;40101;53.002;6.488;2023-12-20T15:15:12;6.30;99.90
54192;DHT22;40101;53.002;6.488;2023-12-20T15:17:38;6.20;99.90
54192;DHT22;40101;53.002;6.488;2023-12-20T15:20:04;6.30;99.90
54192;DHT22;40101;53.002;6.488;2023-12-20T15:22:30;6.30;99.90
54192;DHT22;40101;53.002;6.488;2023-12-20T15:25:01;6.30;99.90
54192;DHT22;40101;53.002;6.488;2023-12-20T15:27:27;6.30;99.90
54192;DHT22;40101;53.002;6.488;2023-12-20T15:29:53;6.30;99.90
54192;DHT22;40101;53.002;6.488;2023-12-20T15:32:18;6.40;99.90
54192;DHT22;40101;53.002;6.488;2023-12-20T15:34:45;6.30;99.90
54192;DHT22;40101;53.002;6.488;2023-12-20T15:37:11;6.30;99.90
54192;DHT22;40101;53.002;6.488;2023-12-20T15:39:37;6.40;99.90
54192;DHT22;40101;53.002;6.488;2023-12-20T15:42:03;6.40;99.90
54192;DHT22;40101;53.002;6.488;2023-12-20T15:44:29;6.40;99.90
54192;DHT22;40101;53.002;6.488;2023-12-20T15:46:55;6.50;99.90
54192;DHT22;40101;53.002;6.488;2023-12-20T15:49:21;6.50;99.90